weather.gov     
National Weather Service

Terminal Aerodrome Forecast
NWS Homepage
This page is being discontinued on March 12, 2014.
The same data is available at this site. Please update your bookmarks.
Thank you, and we apologize for the inconvenience.
Please send an email to SR-SRH.Webmaster@noaa.gov with any concerns.


Current Version
Previous Version:    01  02  03  04  05  06  07  08  09  10  11  12  13  14  15  16  17  18  19  20  21  22  23  24  25  26  27  28  29  
[Printable]
712
FTUS45 KGJT 300520
TAFCNY
TAF
KCNY 300520Z 3006/3106 VRB03KT P6SM FEW030 SCT100 BKN150
     FM301200 03004KT P6SM SCT100 SCT150
     FM301800 36006KT P6SM SCT090 SCT130
     FM310000 31014G20KT P6SM BKN250=




712
FTUS45 KGJT 300520
TAFCNY
TAF
KCNY 300520Z 3006/3106 VRB03KT P6SM FEW030 SCT100 BKN150
     FM301200 03004KT P6SM SCT100 SCT150
     FM301800 36006KT P6SM SCT090 SCT130
     FM310000 31014G20KT P6SM BKN250=


U.S. Dept. of Commerce
NOAA National Weather Service
1325 East West Highway
Silver Spring, MD 20910
E-mail: w-nws.webmaster@noaa.gov
Page last modified: May 16, 2007
NATIONAL WEATHER SERVICE: for Safety, for Work, for Fun - FOR LIFE